createdAt,value
2023-03-16T00:02:14.848Z,-1.28
2023-03-16T00:04:41.216Z,-1.24
2023-03-16T00:07:10.404Z,-1.35
2023-03-16T00:09:41.052Z,-1.35
2023-03-16T00:12:15.632Z,-1.31
2023-03-16T00:14:43.984Z,-1.45
2023-03-16T00:17:18.851Z,-1.36
2023-03-16T00:19:55.069Z,-1.40
2023-03-16T00:22:24.086Z,-1.45
2023-03-16T00:24:50.452Z,-1.46
2023-03-16T00:27:17.247Z,-1.39
2023-03-16T00:29:46.948Z,-1.44
2023-03-16T00:32:18.142Z,-1.41
2023-03-16T00:34:46.213Z,-1.36
2023-03-16T00:37:15.328Z,-1.38
2023-03-16T00:39:42.753Z,-1.35
2023-03-16T00:42:10.271Z,-1.55
2023-03-16T00:44:37.108Z,-1.45
2023-03-16T00:47:04.200Z,-1.59
2023-03-16T00:49:34.710Z,-1.59
2023-03-16T00:52:06.659Z,-1.54
2023-03-16T00:54:33.104Z,-1.54
2023-03-16T00:57:00.566Z,-1.59
2023-03-16T00:59:27.567Z,-1.57
2023-03-16T01:01:54.513Z,-1.47
2023-03-16T01:04:21.464Z,-1.57
2023-03-16T01:06:49.014Z,-1.49
2023-03-16T01:09:15.563Z,-1.53
2023-03-16T01:11:45.247Z,-1.51
2023-03-16T01:14:11.732Z,-1.59
2023-03-16T01:16:38.153Z,-1.48
2023-03-16T01:19:04.602Z,-1.50
2023-03-16T01:21:33.631Z,-1.64
2023-03-16T01:24:00.095Z,-1.66
2023-03-16T01:26:26.683Z,-1.69
2023-03-16T01:28:54.446Z,-1.65
2023-03-16T01:31:21.340Z,-1.52
2023-03-16T01:33:47.961Z,-1.61
2023-03-16T01:36:17.193Z,-1.54
2023-03-16T01:38:43.834Z,-1.52
2023-03-16T01:41:11.324Z,-1.57
2023-03-16T01:43:39.332Z,-1.67
2023-03-16T01:46:05.795Z,-1.60
2023-03-16T01:48:40.197Z,-1.61
2023-03-16T01:51:17.170Z,-1.62
2023-03-16T01:53:46.459Z,-1.61
2023-03-16T01:56:18.427Z,-1.56
2023-03-16T01:58:45.925Z,-1.48
2023-03-16T02:01:14.107Z,-1.62
2023-03-16T02:03:42.970Z,-1.57
2023-03-16T02:06:11.654Z,-1.55
2023-03-16T02:08:39.568Z,-1.59
2023-03-16T02:11:08.527Z,-1.63
2023-03-16T02:13:36.719Z,-1.66
2023-03-16T02:16:07.133Z,-1.69
2023-03-16T02:18:34.132Z,-1.64
2023-03-16T02:21:33.043Z,-1.59
2023-03-16T02:24:02.390Z,-1.47
2023-03-16T02:26:50.604Z,-1.49
2023-03-16T02:29:41.700Z,-1.35
2023-03-16T02:32:08.992Z,-1.28
2023-03-16T02:34:35.888Z,-1.29
2023-03-16T02:37:04.152Z,-1.28
2023-03-16T02:39:30.503Z,-1.26
2023-03-16T02:41:57.131Z,-1.35
2023-03-16T02:44:28.853Z,-1.31
2023-03-16T02:46:59.914Z,-1.28
2023-03-16T02:49:38.084Z,-1.38
2023-03-16T02:52:06.070Z,-1.27
2023-03-16T02:54:32.723Z,-1.26
2023-03-16T02:56:59.091Z,-1.24
2023-03-16T02:59:25.525Z,-1.28
2023-03-16T03:01:51.890Z,-1.27
2023-03-16T03:04:18.401Z,-1.22
2023-03-16T03:06:45.217Z,-1.19
2023-03-16T03:09:11.799Z,-1.16
2023-03-16T03:11:38.725Z,-1.20
2023-03-16T03:14:05.915Z,-1.25
2023-03-16T03:16:32.355Z,-1.17
2023-03-16T03:18:59.099Z,-1.19
2023-03-16T03:21:25.618Z,-1.19
2023-03-16T03:23:52.782Z,-1.21
2023-03-16T03:26:19.969Z,-1.24
2023-03-16T03:28:46.654Z,-1.27
2023-03-16T03:31:15.747Z,-1.37
2023-03-16T03:33:42.170Z,-1.30
2023-03-16T03:36:08.699Z,-1.24
2023-03-16T03:38:35.469Z,-1.34
2023-03-16T03:41:02.036Z,-1.28
2023-03-16T03:43:28.461Z,-1.19
2023-03-16T03:45:59.323Z,-1.21
2023-03-16T03:48:25.832Z,-1.35
2023-03-16T03:50:52.450Z,-1.27
2023-03-16T03:53:19.566Z,-1.33
2023-03-16T03:55:45.922Z,-1.40
2023-03-16T03:58:12.271Z,-1.33
2023-03-16T04:00:39.491Z,-1.34
2023-03-16T04:03:06.474Z,-1.36
2023-03-16T04:05:32.984Z,-1.31
2023-03-16T04:07:59.393Z,-1.33
2023-03-16T04:10:30.185Z,-1.28
2023-03-16T04:12:58.053Z,-1.32
2023-03-16T04:15:24.558Z,-1.36
2023-03-16T04:17:52.609Z,-1.26
2023-03-16T04:20:20.027Z,-1.27
2023-03-16T04:22:47.440Z,-1.31
2023-03-16T04:25:15.963Z,-1.44
2023-03-16T04:27:42.816Z,-1.35
2023-03-16T04:30:12.829Z,-1.35
2023-03-16T04:32:40.191Z,-1.31
2023-03-16T04:35:06.992Z,-1.34
2023-03-16T04:37:34.503Z,-1.23
2023-03-16T04:40:01.048Z,-1.32
2023-03-16T04:42:27.409Z,-1.22
2023-03-16T04:44:53.737Z,-1.27
2023-03-16T04:47:20.112Z,-1.18
2023-03-16T04:49:46.590Z,-1.17
2023-03-16T04:52:13.026Z,-1.23
2023-03-16T04:54:39.388Z,-1.20
2023-03-16T04:57:05.871Z,-1.16
2023-03-16T04:59:32.337Z,-1.11
2023-03-16T05:01:58.749Z,-1.10
2023-03-16T05:04:25.184Z,-1.07
2023-03-16T05:06:51.659Z,-1.06
2023-03-16T05:09:18.068Z,-1.05
2023-03-16T05:11:44.427Z,-1.07
2023-03-16T05:14:10.796Z,-1.09
2023-03-16T05:16:37.166Z,-1.01
2023-03-16T05:19:04.265Z,-1.12
2023-03-16T05:21:32.051Z,-1.01
2023-03-16T05:23:58.423Z,-1.06
2023-03-16T05:26:27.774Z,-1.10
2023-03-16T05:28:54.102Z,-0.95
2023-03-16T05:31:20.484Z,-1.00
2023-03-16T05:33:46.870Z,-0.93
2023-03-16T05:36:13.656Z,-0.89
2023-03-16T05:38:40.090Z,-0.87
2023-03-16T05:41:06.531Z,-0.84
2023-03-16T05:43:34.292Z,-0.83
2023-03-16T05:46:00.638Z,-0.71
2023-03-16T05:48:27.396Z,-0.69
2023-03-16T05:50:53.844Z,-0.71
2023-03-16T05:53:20.595Z,-0.68
2023-03-16T05:55:54.619Z,-0.66
2023-03-16T05:58:21.261Z,-0.62
2023-03-16T06:00:47.621Z,-0.58
2023-03-16T06:03:14.050Z,-0.58
2023-03-16T06:05:41.594Z,-0.56
2023-03-16T06:08:09.114Z,-0.57
2023-03-16T06:10:36.247Z,-0.55
2023-03-16T06:13:02.667Z,-0.49
2023-03-16T06:15:30.515Z,-0.48
2023-03-16T06:17:56.935Z,-0.36
2023-03-16T06:20:23.276Z,-0.36
2023-03-16T06:22:49.707Z,-0.25
2023-03-16T06:25:16.439Z,-0.22
2023-03-16T06:27:43.372Z,-0.15
2023-03-16T06:30:12.009Z,-0.08
2023-03-16T06:32:41.820Z,-0.09
2023-03-16T06:35:09.517Z,-0.03
2023-03-16T06:37:35.900Z,0.08
2023-03-16T06:40:02.256Z,0.07
2023-03-16T06:42:28.619Z,0.12
2023-03-16T06:44:55.028Z,0.13
2023-03-16T06:47:21.539Z,0.08
2023-03-16T06:49:47.984Z,0.23
2023-03-16T06:52:14.593Z,0.20
2023-03-16T06:54:41.493Z,0.27
2023-03-16T06:57:08.655Z,0.29
2023-03-16T06:59:35.113Z,0.34
2023-03-16T07:02:01.904Z,0.36
2023-03-16T07:04:28.589Z,0.50
2023-03-16T07:06:55.007Z,0.61
2023-03-16T07:09:21.946Z,0.74
2023-03-16T07:11:48.304Z,0.78
2023-03-16T07:14:14.649Z,0.91
2023-03-16T07:16:41.112Z,0.86
2023-03-16T07:19:07.477Z,0.97
2023-03-16T07:21:39.223Z,0.97
2023-03-16T07:24:06.425Z,1.10
2023-03-16T07:26:32.849Z,1.18
2023-03-16T07:28:59.615Z,1.25
2023-03-16T07:31:26.140Z,1.47
2023-03-16T07:33:52.522Z,1.65
2023-03-16T07:36:18.956Z,1.97
2023-03-16T07:38:45.370Z,2.07
2023-03-16T07:41:11.701Z,2.22
2023-03-16T07:43:38.067Z,2.39
2023-03-16T07:46:05.433Z,2.58
2023-03-16T07:48:32.567Z,2.74
2023-03-16T07:50:58.934Z,2.75
2023-03-16T07:53:25.443Z,3.05
2023-03-16T07:55:51.807Z,2.98
2023-03-16T07:58:18.300Z,3.12
2023-03-16T08:00:44.639Z,3.52
2023-03-16T08:03:11.076Z,3.59
2023-03-16T08:05:37.510Z,3.68
2023-03-16T08:08:04.004Z,3.80
2023-03-16T08:10:31.874Z,3.95
2023-03-16T08:12:58.558Z,4.09
2023-03-16T08:15:24.976Z,4.43
2023-03-16T08:17:52.390Z,4.46
2023-03-16T08:20:19.012Z,4.56
2023-03-16T08:22:46.540Z,4.58
2023-03-16T08:25:14.029Z,4.32
2023-03-16T08:27:41.767Z,4.40
2023-03-16T08:30:11.375Z,4.48
2023-03-16T08:32:41.434Z,4.33
2023-03-16T08:35:15.365Z,4.25
2023-03-16T08:37:42.134Z,4.35
2023-03-16T08:40:10.763Z,4.45
2023-03-16T08:42:39.651Z,4.50
2023-03-16T08:45:13.610Z,4.29
2023-03-16T08:47:40.645Z,3.93
2023-03-16T08:50:08.660Z,4.01
2023-03-16T08:52:36.399Z,3.91
2023-03-16T08:55:05.429Z,3.92
2023-03-16T08:57:33.337Z,3.89
2023-03-16T09:00:00.232Z,3.95
2023-03-16T09:02:27.277Z,3.77
2023-03-16T09:04:53.700Z,3.82
2023-03-16T09:07:20.416Z,3.63
2023-03-16T09:09:46.788Z,3.73
2023-03-16T09:12:13.681Z,3.71
2023-03-16T09:14:40.076Z,3.88
2023-03-16T09:17:11.553Z,3.89
2023-03-16T09:19:50.526Z,4.04
2023-03-16T09:22:19.806Z,4.17
2023-03-16T09:24:46.752Z,4.14
2023-03-16T09:27:13.213Z,4.22
2023-03-16T09:29:41.001Z,4.24
2023-03-16T09:32:08.415Z,4.16
2023-03-16T09:34:34.792Z,4.31
2023-03-16T09:37:01.495Z,4.14
2023-03-16T09:39:27.946Z,4.24
2023-03-16T09:42:04.388Z,4.14
2023-03-16T09:44:43.232Z,3.99
2023-03-16T09:47:12.056Z,4.06
2023-03-16T09:49:44.741Z,4.01
2023-03-16T09:52:24.039Z,3.93
2023-03-16T09:55:07.598Z,4.11
2023-03-16T09:57:44.513Z,4.26
2023-03-16T10:00:19.302Z,4.29
2023-03-16T10:02:58.835Z,4.16
2023-03-16T10:05:27.798Z,4.15
2023-03-16T10:08:12.694Z,4.21
2023-03-16T10:10:57.709Z,4.18
2023-03-16T10:13:45.655Z,4.11
2023-03-16T10:16:23.249Z,4.23
2023-03-16T10:18:57.219Z,4.22
2023-03-16T10:21:24.503Z,4.37
2023-03-16T10:23:54.169Z,4.41
2023-03-16T10:26:31.539Z,4.42
2023-03-16T10:29:01.085Z,4.65
2023-03-16T10:31:28.269Z,4.59
2023-03-16T10:34:04.955Z,4.64
2023-03-16T10:36:35.316Z,4.59
2023-03-16T10:39:08.438Z,4.74
2023-03-16T10:41:45.875Z,4.87
2023-03-16T10:44:21.712Z,4.92
2023-03-16T10:46:58.247Z,4.99
2023-03-16T10:49:36.039Z,4.98
2023-03-16T10:52:14.081Z,5.09
2023-03-16T10:54:47.762Z,5.21
2023-03-16T10:57:26.322Z,5.29
2023-03-16T10:59:56.680Z,5.12
2023-03-16T11:02:31.750Z,5.22
2023-03-16T11:04:58.418Z,5.33
2023-03-16T11:07:25.488Z,5.48
2023-03-16T11:09:52.555Z,5.62
2023-03-16T11:12:28.719Z,5.57
2023-03-16T11:14:56.270Z,5.66
2023-03-16T11:17:33.037Z,5.82
2023-03-16T11:20:12.240Z,5.66
2023-03-16T11:22:40.670Z,5.61
2023-03-16T11:25:20.319Z,5.70
2023-03-16T11:28:03.978Z,5.70
2023-03-16T11:30:48.336Z,5.66
2023-03-16T11:33:15.409Z,5.58
2023-03-16T11:35:58.691Z,5.78
2023-03-16T11:38:33.761Z,5.84
2023-03-16T11:41:09.158Z,5.68
2023-03-16T11:43:54.299Z,5.81
2023-03-16T11:46:23.918Z,5.87
2023-03-16T11:49:07.000Z,5.92
2023-03-16T11:52:05.123Z,5.96
2023-03-16T11:55:03.673Z,5.97
2023-03-16T11:58:03.248Z,5.88
2023-03-16T12:00:45.970Z,6.05
2023-03-16T12:03:30.906Z,6.26
2023-03-16T12:06:13.758Z,6.11
2023-03-16T12:09:12.359Z,6.19
2023-03-16T12:11:53.498Z,6.24
2023-03-16T12:14:33.818Z,6.26
2023-03-16T12:17:20.806Z,6.33
2023-03-16T12:19:56.388Z,6.36
2023-03-16T12:22:49.897Z,6.43
2023-03-16T12:25:22.146Z,6.44
2023-03-16T12:27:52.739Z,6.52
2023-03-16T12:30:38.449Z,6.65
2023-03-16T12:33:22.884Z,6.76
2023-03-16T12:36:00.105Z,6.89
2023-03-16T12:38:26.491Z,7.08
2023-03-16T12:41:04.961Z,7.33
2023-03-16T12:43:42.619Z,7.51
2023-03-16T12:46:19.554Z,7.45
2023-03-16T12:48:50.941Z,7.37
2023-03-16T12:51:17.354Z,7.28
2023-03-16T12:53:54.621Z,7.16
2023-03-16T12:56:32.844Z,7.01
2023-03-16T12:59:01.680Z,7.13
2023-03-16T13:01:31.246Z,7.02
2023-03-16T13:04:07.048Z,7.06
2023-03-16T13:06:36.565Z,6.98
2023-03-16T13:09:07.119Z,7.16
2023-03-16T13:11:50.419Z,7.15
2023-03-16T13:14:33.702Z,7.19
2023-03-16T13:17:22.933Z,7.32
2023-03-16T13:20:20.946Z,7.12
2023-03-16T13:23:18.924Z,7.14
2023-03-16T13:26:00.371Z,7.16
2023-03-16T13:28:31.432Z,7.29
2023-03-16T13:30:58.022Z,7.36
2023-03-16T13:33:27.956Z,7.30
2023-03-16T13:35:57.358Z,7.37
2023-03-16T13:38:31.361Z,7.47
2023-03-16T13:41:09.189Z,7.46
2023-03-16T13:43:39.648Z,7.44
2023-03-16T13:46:16.989Z,7.42
2023-03-16T13:48:43.562Z,7.36
2023-03-16T13:51:22.529Z,7.39
2023-03-16T13:53:50.225Z,7.52
2023-03-16T13:56:21.460Z,7.47
2023-03-16T13:58:51.405Z,7.52
2023-03-16T14:01:32.001Z,7.53
2023-03-16T14:04:08.261Z,7.53
2023-03-16T14:06:35.808Z,7.50
2023-03-16T14:09:05.981Z,7.57
2023-03-16T14:11:32.330Z,7.65
2023-03-16T14:14:00.431Z,7.66
2023-03-16T14:16:29.628Z,7.76
2023-03-16T14:19:05.996Z,7.81
2023-03-16T14:21:34.502Z,7.81
2023-03-16T14:24:07.049Z,7.83
2023-03-16T14:26:41.859Z,7.89
2023-03-16T14:29:21.338Z,8.02
2023-03-16T14:31:48.544Z,8.11
2023-03-16T14:34:39.433Z,8.23
2023-03-16T14:37:06.752Z,8.18
2023-03-16T14:39:33.424Z,8.11
2023-03-16T14:42:03.060Z,8.15
2023-03-16T14:44:32.542Z,8.19
2023-03-16T14:47:00.198Z,8.32
2023-03-16T14:49:33.167Z,8.39
2023-03-16T14:52:04.606Z,8.44
2023-03-16T14:54:31.112Z,8.35
2023-03-16T14:57:05.408Z,8.27
2023-03-16T14:59:32.958Z,8.12
2023-03-16T15:02:00.987Z,8.08
2023-03-16T15:04:32.297Z,8.03
2023-03-16T15:06:59.351Z,8.00
2023-03-16T15:09:34.239Z,7.93
2023-03-16T15:12:00.666Z,7.81
2023-03-16T15:14:45.827Z,7.88
2023-03-16T15:17:12.244Z,7.77
2023-03-16T15:19:38.599Z,7.74
2023-03-16T15:22:05.556Z,7.69
2023-03-16T15:24:33.264Z,7.75
2023-03-16T15:27:00.601Z,7.71
2023-03-16T15:29:27.120Z,7.72
2023-03-16T15:31:54.584Z,7.67
2023-03-16T15:34:22.420Z,7.72
2023-03-16T15:36:48.940Z,7.76
2023-03-16T15:39:22.796Z,7.78
2023-03-16T15:41:49.133Z,7.73
2023-03-16T15:44:15.862Z,7.74
2023-03-16T15:46:42.276Z,7.68
2023-03-16T15:49:08.820Z,7.66
2023-03-16T15:51:35.373Z,7.71
2023-03-16T15:54:04.772Z,7.69
2023-03-16T15:56:41.205Z,7.67
2023-03-16T15:59:18.439Z,7.51
2023-03-16T16:01:47.710Z,7.52
2023-03-16T16:04:17.578Z,7.43
2023-03-16T16:06:44.299Z,7.49
2023-03-16T16:09:10.906Z,7.44
2023-03-16T16:11:38.243Z,7.38
2023-03-16T16:14:05.157Z,7.45
2023-03-16T16:16:33.108Z,7.40
2023-03-16T16:19:00.313Z,7.27
2023-03-16T16:21:30.847Z,7.24
2023-03-16T16:23:57.651Z,7.24
2023-03-16T16:26:48.338Z,7.21
2023-03-16T16:29:24.965Z,7.16
2023-03-16T16:31:52.060Z,7.22
2023-03-16T16:34:21.322Z,7.18
2023-03-16T16:36:48.584Z,7.12
2023-03-16T16:39:14.976Z,7.15
2023-03-16T16:41:42.629Z,7.02
2023-03-16T16:44:18.659Z,7.01
2023-03-16T16:46:47.965Z,7.02
2023-03-16T16:49:24.860Z,6.96
2023-03-16T16:51:52.499Z,6.90
2023-03-16T16:54:20.035Z,6.95
2023-03-16T16:56:47.279Z,6.82
2023-03-16T16:59:18.133Z,6.80
2023-03-16T17:01:46.711Z,6.82
2023-03-16T17:04:19.192Z,6.76
2023-03-16T17:06:46.711Z,6.63
2023-03-16T17:09:14.250Z,6.59
2023-03-16T17:11:42.181Z,6.56
2023-03-16T17:14:09.307Z,6.52
2023-03-16T17:16:39.471Z,6.49
2023-03-16T17:19:07.402Z,6.37
2023-03-16T17:21:33.873Z,6.36
2023-03-16T17:24:00.421Z,6.32
2023-03-16T17:26:36.872Z,6.35
2023-03-16T17:29:10.854Z,6.28
2023-03-16T17:31:42.032Z,6.24
2023-03-16T17:34:17.311Z,6.18
2023-03-16T17:36:44.490Z,6.19
2023-03-16T17:39:27.557Z,6.16
2023-03-16T17:42:04.186Z,6.32
2023-03-16T17:44:33.939Z,6.25
2023-03-16T17:47:00.444Z,6.23
2023-03-16T17:49:28.459Z,6.16
2023-03-16T17:51:55.609Z,6.13
2023-03-16T17:54:22.013Z,6.11
2023-03-16T17:56:51.772Z,6.13
2023-03-16T17:59:21.116Z,6.21
2023-03-16T18:01:48.094Z,6.17
2023-03-16T18:04:23.260Z,6.12
2023-03-16T18:06:51.118Z,6.14
2023-03-16T18:09:19.315Z,6.13
2023-03-16T18:11:48.439Z,6.09
2023-03-16T18:14:24.061Z,6.16
2023-03-16T18:16:50.747Z,6.09
2023-03-16T18:19:28.587Z,6.10
2023-03-16T18:21:55.027Z,6.09
2023-03-16T18:24:25.441Z,6.04
2023-03-16T18:26:52.376Z,6.05
2023-03-16T18:29:19.890Z,6.05
2023-03-16T18:31:47.618Z,6.06
2023-03-16T18:34:23.814Z,6.03
2023-03-16T18:36:52.910Z,6.03
2023-03-16T18:39:22.018Z,6.15
2023-03-16T18:41:48.403Z,6.23
2023-03-16T18:44:20.239Z,6.23
2023-03-16T18:46:48.216Z,6.30
2023-03-16T18:49:26.722Z,6.21
2023-03-16T18:51:54.499Z,6.12
2023-03-16T18:54:26.513Z,6.10
2023-03-16T18:56:53.893Z,6.02
2023-03-16T18:59:21.158Z,6.08
2023-03-16T19:01:47.973Z,6.06
2023-03-16T19:04:23.812Z,6.04
2023-03-16T19:06:53.356Z,5.94
2023-03-16T19:09:31.497Z,5.81
2023-03-16T19:11:58.640Z,5.87
2023-03-16T19:14:28.225Z,5.88
2023-03-16T19:16:55.534Z,5.86
2023-03-16T19:19:24.174Z,5.75
2023-03-16T19:21:53.708Z,5.75
2023-03-16T19:24:27.507Z,5.75
2023-03-16T19:26:54.471Z,5.72
2023-03-16T19:29:33.142Z,5.69
2023-03-16T19:32:00.782Z,5.66
2023-03-16T19:34:27.972Z,5.60
2023-03-16T19:36:54.440Z,5.63
2023-03-16T19:39:21.478Z,5.58
2023-03-16T19:41:54.161Z,5.53
2023-03-16T19:44:22.622Z,5.54
2023-03-16T19:46:49.722Z,5.49
2023-03-16T19:49:24.742Z,5.45
2023-03-16T19:51:53.189Z,5.47
2023-03-16T19:54:26.821Z,5.50
2023-03-16T19:56:54.750Z,5.40
2023-03-16T19:59:21.339Z,5.45
2023-03-16T20:01:48.002Z,5.44
2023-03-16T20:04:25.190Z,5.26
2023-03-16T20:06:51.615Z,5.24
2023-03-16T20:09:18.298Z,5.24
2023-03-16T20:11:45.926Z,5.24
2023-03-16T20:14:23.645Z,5.26
2023-03-16T20:16:50.139Z,5.29
2023-03-16T20:19:16.607Z,5.27
2023-03-16T20:21:45.886Z,5.14
2023-03-16T20:24:17.933Z,5.24
2023-03-16T20:26:46.282Z,5.23
2023-03-16T20:29:30.379Z,5.17
2023-03-16T20:31:57.169Z,5.22
2023-03-16T20:34:27.362Z,5.10
2023-03-16T20:36:54.052Z,5.09
2023-03-16T20:39:20.929Z,4.95
2023-03-16T20:41:47.913Z,4.98
2023-03-16T20:44:17.943Z,4.95
2023-03-16T20:46:44.871Z,4.99
2023-03-16T20:49:28.619Z,4.94
2023-03-16T20:51:55.432Z,4.89
2023-03-16T20:54:22.798Z,4.91
2023-03-16T20:56:49.359Z,4.88
2023-03-16T20:59:19.989Z,4.75
2023-03-16T21:01:47.328Z,4.71
2023-03-16T21:04:27.537Z,4.71
2023-03-16T21:06:56.644Z,4.82
2023-03-16T21:09:23.008Z,4.73
2023-03-16T21:11:49.557Z,4.78
2023-03-16T21:14:23.019Z,4.65
2023-03-16T21:16:50.513Z,4.60
2023-03-16T21:19:22.986Z,4.68
2023-03-16T21:21:49.810Z,4.73
2023-03-16T21:24:16.430Z,4.74
2023-03-16T21:26:44.593Z,4.67
2023-03-16T21:29:15.881Z,4.65
2023-03-16T21:31:42.726Z,4.63
2023-03-16T21:34:33.571Z,4.57
2023-03-16T21:37:00.003Z,4.62
2023-03-16T21:39:26.343Z,4.58
2023-03-16T21:41:53.507Z,4.65
2023-03-16T21:44:20.613Z,4.59
2023-03-16T21:46:49.627Z,4.55
2023-03-16T21:49:16.382Z,4.54
2023-03-16T21:51:43.364Z,4.60
2023-03-16T21:54:14.595Z,4.49
2023-03-16T21:56:41.855Z,4.49
2023-03-16T21:59:09.098Z,4.37
2023-03-16T22:01:40.875Z,4.52
2023-03-16T22:04:17.128Z,4.38
2023-03-16T22:06:44.523Z,4.24
2023-03-16T22:09:19.524Z,4.34
2023-03-16T22:11:46.500Z,4.20
2023-03-16T22:14:12.864Z,4.20
2023-03-16T22:16:40.125Z,4.22
2023-03-16T22:19:11.980Z,4.18
2023-03-16T22:21:41.846Z,4.26
2023-03-16T22:24:17.984Z,4.21
2023-03-16T22:26:46.167Z,4.22
2023-03-16T22:29:30.141Z,4.31
2023-03-16T22:32:04.274Z,4.28
2023-03-16T22:34:56.810Z,4.32
2023-03-16T22:37:26.276Z,4.27
2023-03-16T22:39:53.550Z,4.31
2023-03-16T22:42:33.522Z,4.28
2023-03-16T22:45:00.741Z,4.45
2023-03-16T22:47:32.391Z,4.27
2023-03-16T22:49:59.150Z,4.36
2023-03-16T22:52:32.575Z,4.34
2023-03-16T22:55:01.592Z,4.27
2023-03-16T22:57:29.095Z,4.26
2023-03-16T22:59:55.704Z,4.28
2023-03-16T23:02:25.447Z,4.35
2023-03-16T23:04:52.009Z,4.26
2023-03-16T23:07:19.615Z,4.38
2023-03-16T23:09:46.615Z,4.32
2023-03-16T23:12:21.812Z,4.32
2023-03-16T23:14:48.592Z,4.35
2023-03-16T23:17:22.070Z,4.44
2023-03-16T23:19:48.728Z,4.45
2023-03-16T23:22:15.370Z,4.50
2023-03-16T23:24:42.506Z,4.41
2023-03-16T23:27:21.274Z,4.38
2023-03-16T23:29:48.125Z,4.36
2023-03-16T23:32:16.768Z,4.31
2023-03-16T23:34:43.137Z,4.35
2023-03-16T23:37:09.532Z,4.33
2023-03-16T23:39:36.370Z,4.35
2023-03-16T23:42:03.817Z,4.31
2023-03-16T23:44:30.592Z,4.25
2023-03-16T23:46:58.501Z,4.22
2023-03-16T23:49:32.442Z,4.19
2023-03-16T23:52:00.598Z,4.28
2023-03-16T23:54:30.412Z,4.32
2023-03-16T23:56:57.210Z,4.40
2023-03-16T23:59:23.814Z,4.32
